createdAt,value
2019-05-26T00:00:43.564Z,9.50
2019-05-26T00:03:11.899Z,9.40
2019-05-26T00:05:40.158Z,9.40
2019-05-26T00:08:08.443Z,9.40
2019-05-26T00:10:36.698Z,9.30
2019-05-26T00:13:05.059Z,9.40
2019-05-26T00:15:33.720Z,9.30
2019-05-26T00:18:02.257Z,9.30
2019-05-26T00:20:30.522Z,9.20
2019-05-26T00:22:58.834Z,9.30
2019-05-26T00:25:27.188Z,9.30
2019-05-26T00:27:55.518Z,9.20
2019-05-26T00:30:23.782Z,9.20
2019-05-26T00:32:52.047Z,9.10
2019-05-26T00:35:20.337Z,9.20
2019-05-26T00:37:50.536Z,9.10
2019-05-26T00:40:19.368Z,9.10
2019-05-26T00:42:48.029Z,9.10
2019-05-26T00:45:16.548Z,9.00
2019-05-26T00:47:44.815Z,9.00
2019-05-26T00:50:13.301Z,9.00
2019-05-26T00:52:41.587Z,9.00
2019-05-26T00:55:10.637Z,9.10
2019-05-26T00:57:39.155Z,9.10
2019-05-26T01:00:07.631Z,9.10
2019-05-26T01:02:35.980Z,9.20
2019-05-26T01:05:04.499Z,9.30
2019-05-26T01:07:32.881Z,9.40
2019-05-26T01:10:01.193Z,9.40
2019-05-26T01:12:29.475Z,9.50
2019-05-26T01:14:57.777Z,9.60
2019-05-26T01:17:26.221Z,9.60
2019-05-26T01:19:54.526Z,9.60
2019-05-26T01:22:22.811Z,9.60
2019-05-26T01:24:51.203Z,9.70
2019-05-26T01:27:19.478Z,9.60
2019-05-26T01:29:47.837Z,9.60
2019-05-26T01:32:16.805Z,9.50
2019-05-26T01:34:45.082Z,9.40
2019-05-26T01:37:13.388Z,9.30
2019-05-26T01:39:41.626Z,9.30
2019-05-26T01:42:09.878Z,9.20
2019-05-26T01:44:38.190Z,9.10
2019-05-26T01:47:06.784Z,9.10
2019-05-26T01:49:35.039Z,9.10
2019-05-26T01:52:04.116Z,9.00
2019-05-26T01:54:32.472Z,8.90
2019-05-26T01:57:00.883Z,8.90
2019-05-26T01:59:29.179Z,8.90
2019-05-26T02:01:58.805Z,8.90
2019-05-26T02:04:27.627Z,9.00
2019-05-26T02:06:55.886Z,9.00
2019-05-26T02:09:24.224Z,9.10
2019-05-26T02:11:52.519Z,9.20
2019-05-26T02:14:20.882Z,9.20
2019-05-26T02:16:49.135Z,9.20
2019-05-26T02:19:17.460Z,9.20
2019-05-26T02:21:45.723Z,9.20
2019-05-26T02:24:13.938Z,9.20
2019-05-26T02:26:42.256Z,9.20
2019-05-26T02:29:10.598Z,9.10
2019-05-26T02:31:38.960Z,9.00
2019-05-26T02:34:07.245Z,9.00
2019-05-26T02:36:35.518Z,8.90
2019-05-26T02:39:05.344Z,8.80
2019-05-26T02:41:33.604Z,8.70
2019-05-26T02:44:01.860Z,8.70
2019-05-26T02:46:30.129Z,8.70
2019-05-26T02:48:58.485Z,8.60
2019-05-26T02:51:26.697Z,8.60
2019-05-26T02:53:55.131Z,8.50
2019-05-26T02:56:23.507Z,8.60
2019-05-26T02:58:51.739Z,8.60
2019-05-26T03:01:19.953Z,8.50
2019-05-26T03:03:48.240Z,8.50
2019-05-26T03:06:17.281Z,8.50
2019-05-26T03:08:45.648Z,8.50
2019-05-26T03:11:14.477Z,8.50
2019-05-26T03:13:44.203Z,8.50
2019-05-26T03:16:13.777Z,8.50
2019-05-26T03:18:42.764Z,8.50
2019-05-26T03:21:13.298Z,8.50
2019-05-26T03:23:41.936Z,8.50
2019-05-26T03:26:11.687Z,8.50
2019-05-26T03:28:40.060Z,8.50
2019-05-26T03:31:08.575Z,8.50
2019-05-26T03:33:36.845Z,8.50
2019-05-26T03:36:05.185Z,8.50
2019-05-26T03:38:33.538Z,8.50
2019-05-26T03:41:01.800Z,8.60
2019-05-26T03:43:30.096Z,8.60
2019-05-26T03:46:06.721Z,8.60
2019-05-26T03:48:34.976Z,8.60
2019-05-26T03:51:03.214Z,8.50
2019-05-26T03:53:31.596Z,8.50
2019-05-26T03:55:59.953Z,8.50
2019-05-26T03:58:28.217Z,8.50
2019-05-26T04:00:56.483Z,8.60
2019-05-26T04:03:24.716Z,8.70
2019-05-26T04:05:52.980Z,8.70
2019-05-26T04:08:21.232Z,8.60
2019-05-26T04:10:49.491Z,8.70
2019-05-26T04:13:18.231Z,8.70
2019-05-26T04:15:46.676Z,8.90
2019-05-26T04:18:14.929Z,8.90
2019-05-26T04:20:45.975Z,9.00
2019-05-26T04:23:13.097Z,9.10
2019-05-26T04:25:41.387Z,9.00
2019-05-26T04:28:09.655Z,9.00
2019-05-26T04:30:37.898Z,8.90
2019-05-26T04:33:06.175Z,9.00
2019-05-26T04:35:34.529Z,9.20
2019-05-26T04:38:02.803Z,9.40
2019-05-26T04:40:31.018Z,9.40
2019-05-26T04:42:59.280Z,9.40
2019-05-26T04:45:27.653Z,9.50
2019-05-26T04:47:55.893Z,9.60
2019-05-26T04:50:24.179Z,9.60
2019-05-26T04:53:05.501Z,9.60
2019-05-26T04:55:22.451Z,9.70
2019-05-26T04:57:50.700Z,9.70
2019-05-26T05:00:19.011Z,9.80
2019-05-26T05:02:47.236Z,10.00
2019-05-26T05:05:15.539Z,10.00
2019-05-26T05:07:43.801Z,10.10
2019-05-26T05:10:12.095Z,10.30
2019-05-26T05:12:40.363Z,10.40
2019-05-26T05:15:09.395Z,10.60
2019-05-26T05:17:37.661Z,10.60
2019-05-26T05:20:05.896Z,10.80
2019-05-26T05:22:34.207Z,11.10
2019-05-26T05:25:02.549Z,11.10
2019-05-26T05:27:30.795Z,11.40
2019-05-26T05:29:59.057Z,11.50
2019-05-26T05:32:27.626Z,11.70
2019-05-26T05:34:56.047Z,11.80
2019-05-26T05:37:25.335Z,11.90
2019-05-26T05:39:53.694Z,11.80
2019-05-26T05:42:22.086Z,11.80
2019-05-26T05:44:50.479Z,12.00
2019-05-26T05:47:18.861Z,12.10
2019-05-26T05:49:47.601Z,12.30
2019-05-26T05:52:15.865Z,12.60
2019-05-26T05:54:44.106Z,12.90
2019-05-26T05:57:12.378Z,13.20
2019-05-26T05:59:40.606Z,13.30
2019-05-26T06:02:08.882Z,13.60
2019-05-26T06:04:37.104Z,13.80
2019-05-26T06:07:05.487Z,14.10
2019-05-26T06:09:33.699Z,14.30
2019-05-26T06:12:02.191Z,14.60
2019-05-26T06:14:30.423Z,14.70
2019-05-26T06:16:58.684Z,14.60
2019-05-26T06:19:26.951Z,14.70
2019-05-26T06:21:55.310Z,14.70
2019-05-26T06:24:23.913Z,14.80
2019-05-26T06:26:54.135Z,15.10
2019-05-26T06:29:22.198Z,15.20
2019-05-26T06:31:50.800Z,15.20
2019-05-26T06:34:19.394Z,15.10
2019-05-26T06:36:47.659Z,15.20
2019-05-26T06:39:15.971Z,15.40
2019-05-26T06:41:44.600Z,15.30
2019-05-26T06:44:12.900Z,15.50
2019-05-26T06:46:41.157Z,15.80
2019-05-26T06:49:10.272Z,16.00
2019-05-26T06:51:38.632Z,16.00
2019-05-26T06:54:06.943Z,16.40
2019-05-26T06:56:35.258Z,16.40
2019-05-26T06:59:03.601Z,15.90
2019-05-26T07:01:31.951Z,15.80
2019-05-26T07:04:00.799Z,16.00
2019-05-26T07:06:29.114Z,16.50
2019-05-26T07:08:58.646Z,16.70
2019-05-26T07:11:26.964Z,16.60
2019-05-26T07:13:55.306Z,16.80
2019-05-26T07:16:36.984Z,16.70
2019-05-26T07:18:53.822Z,16.90
2019-05-26T07:21:22.167Z,17.00
2019-05-26T07:23:50.934Z,17.00
2019-05-26T07:26:19.307Z,17.30
2019-05-26T07:28:47.737Z,17.00
2019-05-26T07:31:16.401Z,17.10
2019-05-26T07:33:44.667Z,17.30
2019-05-26T07:36:12.960Z,17.10
2019-05-26T07:38:41.413Z,17.10
2019-05-26T07:41:09.662Z,17.40
2019-05-26T07:43:37.924Z,17.30
2019-05-26T07:46:06.234Z,17.10
2019-05-26T07:48:36.080Z,17.20
2019-05-26T07:51:04.818Z,17.30
2019-05-26T07:53:33.089Z,17.00
2019-05-26T07:56:01.476Z,16.70
2019-05-26T07:58:30.117Z,16.90
2019-05-26T08:00:58.587Z,17.10
2019-05-26T08:03:27.164Z,17.20
2019-05-26T08:05:55.599Z,17.30
2019-05-26T08:08:23.870Z,17.30
2019-05-26T08:10:52.201Z,17.30
2019-05-26T08:13:20.568Z,17.40
2019-05-26T08:15:49.988Z,17.30
2019-05-26T08:18:18.272Z,17.30
2019-05-26T08:20:46.672Z,17.20
2019-05-26T08:23:15.121Z,17.30
2019-05-26T08:25:43.430Z,17.10
2019-05-26T08:28:11.667Z,17.30
2019-05-26T08:30:39.988Z,17.50
2019-05-26T08:33:08.272Z,17.60
2019-05-26T08:35:36.603Z,17.50
2019-05-26T08:38:04.996Z,17.40
2019-05-26T08:40:33.381Z,17.50
2019-05-26T08:43:01.620Z,17.60
2019-05-26T08:45:30.043Z,17.70
2019-05-26T08:47:58.371Z,17.70
2019-05-26T08:50:26.630Z,17.70
2019-05-26T08:52:55.036Z,17.90
2019-05-26T08:55:23.420Z,18.10
2019-05-26T08:57:51.792Z,18.30
2019-05-26T09:00:20.289Z,18.40
2019-05-26T09:02:48.667Z,18.20
2019-05-26T09:05:17.264Z,18.20
2019-05-26T09:07:45.560Z,18.10
2019-05-26T09:10:14.470Z,17.90
2019-05-26T09:12:42.789Z,18.00
2019-05-26T09:15:11.437Z,18.10
2019-05-26T09:17:39.782Z,18.30
2019-05-26T09:20:11.177Z,18.50
2019-05-26T09:22:38.653Z,18.40
2019-05-26T09:25:08.429Z,18.20
2019-05-26T09:27:36.729Z,18.20
2019-05-26T09:30:06.137Z,18.30
2019-05-26T09:32:34.478Z,18.30
2019-05-26T09:35:02.923Z,18.50
2019-05-26T09:37:31.301Z,18.60
2019-05-26T09:39:59.843Z,18.80
2019-05-26T09:42:28.076Z,19.10
2019-05-26T09:44:56.368Z,19.30
2019-05-26T09:47:24.713Z,19.40
2019-05-26T09:49:53.063Z,19.20
2019-05-26T09:52:21.324Z,19.10
2019-05-26T09:54:49.760Z,19.30
2019-05-26T09:57:18.009Z,19.60
2019-05-26T09:59:46.331Z,19.80
2019-05-26T10:02:14.682Z,19.70
2019-05-26T10:04:43.054Z,19.80
2019-05-26T10:07:15.652Z,19.90
2019-05-26T10:09:41.428Z,20.20
2019-05-26T10:12:10.016Z,20.20
2019-05-26T10:14:38.283Z,20.10
2019-05-26T10:17:06.596Z,19.70
2019-05-26T10:19:34.904Z,19.50
2019-05-26T10:22:03.261Z,19.70
2019-05-26T10:24:31.681Z,20.00
2019-05-26T10:27:00.013Z,20.00
2019-05-26T10:29:28.462Z,20.00
2019-05-26T10:31:56.840Z,19.90
2019-05-26T10:34:25.189Z,20.00
2019-05-26T10:36:53.522Z,20.00
2019-05-26T10:39:21.826Z,20.00
2019-05-26T10:41:50.267Z,20.10
2019-05-26T10:44:18.901Z,20.10
2019-05-26T10:46:47.243Z,19.80
2019-05-26T10:49:15.649Z,20.00
2019-05-26T10:51:44.022Z,20.10
2019-05-26T10:54:12.366Z,20.40
2019-05-26T10:56:40.897Z,20.40
2019-05-26T10:59:09.207Z,20.40
2019-05-26T11:01:37.649Z,20.40
2019-05-26T11:04:06.109Z,20.60
2019-05-26T11:06:34.483Z,20.50
2019-05-26T11:09:02.793Z,20.50
2019-05-26T11:11:31.279Z,20.50
2019-05-26T11:14:02.767Z,20.60
2019-05-26T11:16:29.809Z,20.40
2019-05-26T11:18:58.236Z,20.50
2019-05-26T11:21:26.690Z,20.30
2019-05-26T11:23:55.054Z,20.10
2019-05-26T11:26:23.500Z,20.20
2019-05-26T11:28:51.988Z,20.40
2019-05-26T11:31:20.376Z,20.70
2019-05-26T11:33:48.731Z,20.90
2019-05-26T11:36:17.076Z,20.90
2019-05-26T11:38:46.441Z,20.90
2019-05-26T11:41:14.836Z,20.50
2019-05-26T11:43:43.180Z,20.50
2019-05-26T11:46:11.649Z,20.30
2019-05-26T11:48:39.949Z,20.40
2019-05-26T11:51:08.323Z,20.50
2019-05-26T11:53:36.623Z,20.30
2019-05-26T11:56:04.980Z,20.00
2019-05-26T11:58:33.449Z,19.70
2019-05-26T12:01:01.821Z,19.50
2019-05-26T12:03:30.187Z,19.50
2019-05-26T12:05:58.914Z,19.60
2019-05-26T12:08:27.230Z,19.70
2019-05-26T12:10:58.399Z,19.80
2019-05-26T12:13:25.659Z,20.00
2019-05-26T12:15:54.120Z,20.20
2019-05-26T12:18:23.389Z,20.30
2019-05-26T12:20:51.828Z,20.30
2019-05-26T12:23:20.224Z,20.20
2019-05-26T12:25:48.620Z,20.30
2019-05-26T12:28:17.002Z,20.30
2019-05-26T12:30:45.468Z,20.00
2019-05-26T12:33:13.929Z,19.90
2019-05-26T12:35:48.107Z,20.10
2019-05-26T12:38:16.577Z,20.20
2019-05-26T12:40:44.953Z,20.30
2019-05-26T12:43:13.238Z,20.30
2019-05-26T12:45:41.545Z,20.40
2019-05-26T12:48:09.848Z,20.40
2019-05-26T12:50:38.468Z,20.40
2019-05-26T12:53:06.959Z,20.20
2019-05-26T12:55:35.369Z,20.30
2019-05-26T12:58:04.391Z,20.50
2019-05-26T13:00:47.583Z,20.30
2019-05-26T13:03:02.784Z,20.10
2019-05-26T13:05:31.214Z,20.10
2019-05-26T13:07:59.517Z,20.20
2019-05-26T13:10:27.867Z,20.40
2019-05-26T13:12:56.139Z,20.50
2019-05-26T13:15:24.680Z,20.40
2019-05-26T13:17:53.062Z,20.60
2019-05-26T13:20:21.540Z,20.70
2019-05-26T13:22:49.806Z,20.90
2019-05-26T13:25:18.152Z,20.80
2019-05-26T13:27:46.494Z,20.90
2019-05-26T13:30:15.472Z,21.00
2019-05-26T13:32:43.847Z,21.20
2019-05-26T13:35:12.241Z,21.30
2019-05-26T13:37:40.525Z,21.10
2019-05-26T13:40:09.153Z,21.30
2019-05-26T13:42:37.453Z,21.20
2019-05-26T13:45:21.240Z,21.00
2019-05-26T13:47:36.400Z,21.00
2019-05-26T13:50:05.466Z,21.20
2019-05-26T13:52:33.888Z,21.60
2019-05-26T13:55:02.296Z,21.60
2019-05-26T13:57:30.619Z,21.90
2019-05-26T13:59:58.974Z,22.10
2019-05-26T14:02:27.309Z,21.90
2019-05-26T14:04:55.721Z,21.60
2019-05-26T14:07:24.036Z,21.80
2019-05-26T14:09:52.495Z,22.20
2019-05-26T14:12:21.309Z,22.40
2019-05-26T14:14:49.822Z,22.40
2019-05-26T14:17:18.630Z,21.90
2019-05-26T14:19:48.537Z,21.90
2019-05-26T14:22:16.994Z,21.50
2019-05-26T14:24:54.047Z,21.30
2019-05-26T14:27:15.382Z,21.50
2019-05-26T14:29:43.747Z,21.40
2019-05-26T14:32:12.196Z,21.70
2019-05-26T14:34:40.781Z,21.60
2019-05-26T14:37:09.215Z,21.20
2019-05-26T14:39:37.587Z,21.30
2019-05-26T14:42:06.836Z,21.40
2019-05-26T14:44:35.313Z,21.60
2019-05-26T14:47:03.658Z,21.60
2019-05-26T14:49:32.009Z,21.50
2019-05-26T14:52:00.379Z,21.40
2019-05-26T14:54:28.834Z,21.30
2019-05-26T14:56:57.238Z,21.40
2019-05-26T14:59:26.054Z,21.40
2019-05-26T15:01:54.482Z,21.60
2019-05-26T15:04:22.862Z,21.60
2019-05-26T15:06:51.398Z,21.80
2019-05-26T15:09:25.100Z,21.80
2019-05-26T15:11:49.970Z,21.80
2019-05-26T15:14:18.368Z,21.70
2019-05-26T15:16:46.962Z,21.70
2019-05-26T15:19:15.333Z,21.80
2019-05-26T15:21:43.856Z,21.80
2019-05-26T15:24:12.304Z,21.60
2019-05-26T15:26:40.726Z,21.40
2019-05-26T15:29:09.201Z,21.40
2019-05-26T15:31:37.541Z,21.60
2019-05-26T15:34:05.844Z,21.80
2019-05-26T15:36:34.592Z,22.00
2019-05-26T15:39:03.608Z,21.80
2019-05-26T15:41:32.184Z,22.10
2019-05-26T15:44:00.860Z,21.90
2019-05-26T15:46:29.277Z,21.40
2019-05-26T15:48:57.638Z,21.40
2019-05-26T15:51:26.027Z,21.50
2019-05-26T15:53:54.409Z,21.50
2019-05-26T15:56:22.871Z,21.60
2019-05-26T15:58:51.236Z,21.50
2019-05-26T16:01:19.821Z,21.60
2019-05-26T16:03:48.234Z,21.70
2019-05-26T16:06:16.639Z,21.70
2019-05-26T16:08:45.157Z,21.60
2019-05-26T16:11:13.613Z,21.50
2019-05-26T16:13:42.026Z,21.30
2019-05-26T16:16:10.504Z,21.10
2019-05-26T16:18:39.214Z,20.80
2019-05-26T16:21:24.739Z,20.70
2019-05-26T16:23:38.015Z,20.70
2019-05-26T16:26:06.967Z,20.70
2019-05-26T16:28:35.729Z,20.60
2019-05-26T16:31:04.374Z,20.40
2019-05-26T16:33:35.204Z,20.20
2019-05-26T16:36:03.598Z,20.10
2019-05-26T16:38:32.058Z,20.20
2019-05-26T16:41:00.435Z,20.30
2019-05-26T16:43:29.020Z,20.30
2019-05-26T16:45:57.480Z,20.40
2019-05-26T16:48:25.933Z,20.60
2019-05-26T16:50:55.298Z,20.60
2019-05-26T16:53:23.747Z,20.60
2019-05-26T16:55:52.334Z,20.60
2019-05-26T16:58:20.752Z,20.60
2019-05-26T17:00:49.463Z,20.50
2019-05-26T17:03:17.923Z,20.40
2019-05-26T17:05:46.347Z,20.10
2019-05-26T17:08:15.074Z,20.00
2019-05-26T17:10:43.541Z,20.10
2019-05-26T17:13:12.220Z,20.20
2019-05-26T17:15:40.680Z,20.20
2019-05-26T17:18:09.301Z,20.20
2019-05-26T17:20:37.791Z,20.30
2019-05-26T17:23:06.293Z,20.30
2019-05-26T17:25:34.816Z,20.30
2019-05-26T17:28:03.235Z,20.30
2019-05-26T17:30:31.757Z,20.30
2019-05-26T17:33:00.270Z,20.40
2019-05-26T17:35:28.681Z,20.40
2019-05-26T17:37:57.267Z,20.30
2019-05-26T17:40:26.105Z,20.20
2019-05-26T17:42:54.597Z,20.20
2019-05-26T17:45:24.416Z,20.30
2019-05-26T17:47:53.014Z,20.30
2019-05-26T17:50:21.882Z,20.20
2019-05-26T17:52:50.919Z,20.20
2019-05-26T17:55:21.020Z,20.10
2019-05-26T17:57:50.127Z,19.90
2019-05-26T18:00:18.556Z,19.90
2019-05-26T18:02:47.153Z,19.80
2019-05-26T18:05:16.128Z,19.80
2019-05-26T18:07:44.649Z,19.80
2019-05-26T18:10:13.625Z,19.70
2019-05-26T18:12:42.130Z,19.70
2019-05-26T18:15:10.711Z,19.70
2019-05-26T18:17:46.899Z,19.80
2019-05-26T18:20:10.999Z,19.80
2019-05-26T18:22:42.926Z,19.80
2019-05-26T18:25:12.067Z,19.70
2019-05-26T18:27:40.578Z,19.60
2019-05-26T18:30:09.563Z,19.60
2019-05-26T18:32:38.137Z,19.60
2019-05-26T18:35:06.882Z,19.60
2019-05-26T18:37:35.972Z,19.50
2019-05-26T18:40:05.441Z,19.40
2019-05-26T18:42:34.082Z,19.50
2019-05-26T18:45:02.733Z,19.40
2019-05-26T18:47:31.400Z,19.40
2019-05-26T18:50:01.325Z,19.30
2019-05-26T18:52:30.741Z,19.30
2019-05-26T18:54:59.273Z,19.30
2019-05-26T18:57:27.799Z,19.20
2019-05-26T18:59:56.847Z,19.20
2019-05-26T19:02:25.382Z,19.10
2019-05-26T19:04:53.940Z,19.00
2019-05-26T19:07:22.376Z,19.00
2019-05-26T19:09:50.853Z,18.90
2019-05-26T19:12:19.934Z,19.00
2019-05-26T19:14:49.048Z,19.00
2019-05-26T19:17:18.516Z,19.00
2019-05-26T19:19:46.917Z,19.00
2019-05-26T19:22:15.799Z,18.90
2019-05-26T19:24:44.348Z,18.90
2019-05-26T19:27:15.072Z,18.90
2019-05-26T19:29:43.548Z,18.90
2019-05-26T19:32:12.145Z,18.90
2019-05-26T19:34:40.667Z,18.90
2019-05-26T19:37:09.407Z,18.90
2019-05-26T19:39:38.096Z,18.80
2019-05-26T19:42:06.637Z,18.90
2019-05-26T19:44:35.083Z,18.80
2019-05-26T19:47:05.502Z,18.80
2019-05-26T19:49:34.675Z,18.70
2019-05-26T19:52:03.390Z,18.70
2019-05-26T19:54:31.875Z,18.70
2019-05-26T19:57:01.667Z,18.70
2019-05-26T19:59:30.505Z,18.70
2019-05-26T20:02:14.906Z,18.60
2019-05-26T20:04:29.457Z,18.60
2019-05-26T20:06:58.046Z,18.50
2019-05-26T20:09:29.979Z,18.40
2019-05-26T20:11:58.494Z,18.40
2019-05-26T20:14:27.058Z,18.30
2019-05-26T20:16:55.607Z,18.20
2019-05-26T20:19:24.191Z,18.20
2019-05-26T20:21:52.717Z,18.10
2019-05-26T20:24:21.232Z,18.10
2019-05-26T20:26:50.356Z,18.00
2019-05-26T20:29:18.802Z,18.00
2019-05-26T20:31:47.431Z,17.90
2019-05-26T20:34:16.093Z,17.90
2019-05-26T20:36:44.451Z,17.90
2019-05-26T20:39:13.646Z,17.80
2019-05-26T20:41:42.160Z,17.80
2019-05-26T20:44:11.942Z,17.70
2019-05-26T20:46:40.312Z,17.60
2019-05-26T20:49:11.089Z,17.50
2019-05-26T20:51:40.156Z,17.50
2019-05-26T20:54:08.577Z,17.50
2019-05-26T20:56:38.004Z,17.40
2019-05-26T20:59:09.092Z,17.20
2019-05-26T21:01:37.596Z,17.10
2019-05-26T21:04:06.070Z,16.90
2019-05-26T21:06:34.782Z,16.80
2019-05-26T21:09:03.937Z,16.60
2019-05-26T21:11:32.412Z,16.60
2019-05-26T21:14:00.786Z,16.50
2019-05-26T21:16:29.236Z,16.50
2019-05-26T21:18:57.753Z,16.40
2019-05-26T21:21:26.227Z,16.50
2019-05-26T21:23:54.548Z,16.50
2019-05-26T21:26:22.990Z,16.50
2019-05-26T21:28:51.510Z,16.50
2019-05-26T21:31:19.963Z,16.60
2019-05-26T21:33:48.325Z,16.60
2019-05-26T21:36:16.811Z,16.60
2019-05-26T21:38:45.514Z,16.60
2019-05-26T21:41:13.784Z,16.60
2019-05-26T21:43:42.233Z,16.60
2019-05-26T21:46:10.597Z,16.70
2019-05-26T21:48:38.928Z,16.70
2019-05-26T21:51:07.339Z,16.80
2019-05-26T21:53:36.259Z,16.80
2019-05-26T21:56:04.579Z,16.90
2019-05-26T21:58:33.247Z,16.90
2019-05-26T22:01:01.794Z,16.90
2019-05-26T22:03:30.093Z,17.00
2019-05-26T22:05:58.739Z,17.10
2019-05-26T22:08:27.481Z,17.20
2019-05-26T22:10:55.924Z,17.10
2019-05-26T22:13:25.014Z,17.10
2019-05-26T22:15:53.344Z,17.10
2019-05-26T22:18:21.719Z,17.10
2019-05-26T22:20:50.260Z,17.10
2019-05-26T22:23:18.594Z,17.10
2019-05-26T22:25:46.940Z,17.10
2019-05-26T22:28:15.204Z,17.20
2019-05-26T22:30:43.569Z,17.20
2019-05-26T22:33:11.902Z,17.20
2019-05-26T22:35:40.234Z,17.00
2019-05-26T22:38:08.477Z,17.00
2019-05-26T22:40:36.759Z,17.10
2019-05-26T22:43:05.040Z,17.10
2019-05-26T22:45:33.310Z,17.00
2019-05-26T22:48:02.679Z,17.10
2019-05-26T22:50:31.219Z,17.00
2019-05-26T22:52:59.459Z,17.00
2019-05-26T22:55:27.819Z,16.90
2019-05-26T22:57:56.073Z,16.80
2019-05-26T23:00:24.747Z,16.80
2019-05-26T23:02:53.060Z,16.70
2019-05-26T23:05:21.473Z,16.70
2019-05-26T23:07:49.758Z,16.60
2019-05-26T23:10:18.090Z,16.60
2019-05-26T23:12:46.387Z,16.60
2019-05-26T23:15:14.775Z,16.50
2019-05-26T23:17:43.184Z,16.50
2019-05-26T23:20:12.949Z,16.40
2019-05-26T23:22:41.423Z,16.40
2019-05-26T23:25:09.710Z,16.40
2019-05-26T23:27:37.971Z,16.30
2019-05-26T23:30:06.724Z,16.20
2019-05-26T23:32:34.987Z,16.20
2019-05-26T23:35:03.533Z,16.20
2019-05-26T23:37:33.607Z,16.20
2019-05-26T23:40:01.959Z,16.10
2019-05-26T23:42:30.221Z,16.10
2019-05-26T23:44:58.520Z,16.20
2019-05-26T23:47:26.766Z,16.20
2019-05-26T23:49:55.072Z,16.10
2019-05-26T23:52:23.427Z,16.10
2019-05-26T23:54:51.848Z,16.00
2019-05-26T23:57:20.134Z,16.00
2019-05-26T23:59:48.370Z,16.00
